Time;durP1;ratioP1;P1;durP2;ratioP2;P2;SDS_P1;SDS_P2;PMS_P1;PMS_P2;Temp;Humidity;BMP_temperature;BMP_pressure;BME280_temperature;BME280_humidity;BME280_pressure;Samples;Min_cycle;Max_cycle;Signal;HPM_P1;HPM_P2
2022/02/04 00:06:26;;;;;;;15.75;12.38;;;;;;;7.30;80.95;96479.91;5092456;28;20556;-76
2022/02/04 00:20:22;;;;;;;18.63;12.60;;;;;;;7.29;81.10;96481.69;5092442;28;20112;-76
2022/02/04 00:23:06;;;;;;;15.98;12.73;;;;;;;7.30;81.03;96483.31;5092208;28;20063;-76
2022/02/04 00:25:47;;;;;;;15.25;12.35;;;;;;;7.29;81.17;96492.06;5092174;28;20056;-76
2022/02/04 00:28:22;;;;;;;16.30;11.77;;;;;;;7.31;81.40;96497.09;5092030;28;20058;-76
2022/02/04 00:31:04;;;;;;;16.58;13.18;;;;;;;7.32;81.65;96490.94;5092157;28;20062;-76
2022/02/04 00:33:34;;;;;;;13.20;11.68;;;;;;;7.32;81.63;96491.72;5093684;28;20477;-76
2022/02/04 00:36:10;;;;;;;14.00;11.80;;;;;;;7.31;80.94;96494.50;5095741;28;20085;-76
2022/02/04 00:38:42;;;;;;;14.55;11.75;;;;;;;7.26;80.27;96487.22;5095987;28;20047;-76
2022/02/04 00:41:12;;;;;;;14.38;11.93;;;;;;;7.22;79.72;96485.94;5096268;28;20094;-77
2022/02/04 00:43:40;;;;;;;15.40;12.73;;;;;;;7.24;81.12;96489.16;5096119;28;20059;-76
2022/02/04 00:46:13;;;;;;;14.52;12.02;;;;;;;7.26;81.30;96492.41;5095920;28;20156;-76
2022/02/04 00:49:10;;;;;;;15.33;11.23;;;;;;;7.26;80.99;96499.38;5095551;28;20101;-76
2022/02/04 00:51:48;;;;;;;15.07;12.07;;;;;;;7.25;80.10;96503.75;5095666;28;20051;-76
2022/02/04 00:54:23;;;;;;;14.70;11.02;;;;;;;7.23;79.71;96497.91;5095878;28;20044;-76
2022/02/04 00:57:08;;;;;;;16.33;11.65;;;;;;;7.24;80.38;96509.94;5095462;28;20052;-77
2022/02/04 01:13:31;;;;;;;12.93;10.90;;;;;;;7.27;80.68;96511.38;5095536;28;20052;-76
2022/02/04 01:27:02;;;;;;;10.07;8.13;;;;;;;7.22;80.68;96506.69;5104208;28;20044;-76
2022/02/04 01:29:36;;;;;;;12.45;9.80;;;;;;;7.22;80.99;96511.88;5102584;28;20048;-76
2022/02/04 01:32:06;;;;;;;10.05;8.80;;;;;;;7.22;80.82;96514.47;5102057;28;20055;-76
2022/02/04 01:34:33;;;;;;;8.90;7.20;;;;;;;7.21;79.74;96512.81;5098440;28;20051;-76
2022/02/04 01:37:01;;;;;;;8.13;7.22;;;;;;;7.18;79.09;96515.75;5096457;28;20052;-77
2022/02/04 01:39:30;;;;;;;9.65;8.13;;;;;;;7.17;79.68;96519.31;5095109;28;20048;-76
2022/02/04 01:41:57;;;;;;;9.45;8.45;;;;;;;7.17;80.21;96516.72;5094831;28;20494;-76
2022/02/04 01:44:27;;;;;;;9.63;7.90;;;;;;;7.15;78.79;96522.09;5094800;28;20407;-76
2022/02/04 01:46:55;;;;;;;9.40;8.18;;;;;;;7.17;79.29;96511.53;5094059;28;20059;-76
2022/02/04 01:49:24;;;;;;;9.85;8.60;;;;;;;7.19;80.20;96518.19;5095151;28;20040;-76
2022/02/04 01:51:52;;;;;;;8.68;7.70;;;;;;;7.19;80.20;96522.56;5094624;28;20063;-76
2022/02/04 01:54:20;;;;;;;7.07;6.25;;;;;;;7.16;79.02;96512.50;5094857;28;20056;-76
2022/02/04 01:56:48;;;;;;;7.63;6.30;;;;;;;7.11;77.57;96510.41;5094312;28;20052;-76
2022/02/04 01:59:16;;;;;;;8.55;6.97;;;;;;;7.08;78.74;96507.31;5094641;28;20055;-76
2022/02/04 02:01:44;;;;;;;7.43;6.60;;;;;;;7.09;79.16;96503.75;5094324;28;20048;-76
2022/02/04 02:04:13;;;;;;;9.05;7.25;;;;;;;7.08;78.97;96504.72;5094496;28;20052;-76
2022/02/04 02:06:50;;;;;;;8.60;7.07;;;;;;;7.08;80.09;96507.31;5094241;28;20048;-76
2022/02/04 02:09:18;;;;;;;8.32;6.82;;;;;;;7.08;79.21;96508.13;5095100;28;20044;-76
2022/02/04 02:11:51;;;;;;;8.13;6.78;;;;;;;7.10;79.66;96505.38;5116057;28;20048;-77
2022/02/04 02:14:22;;;;;;;;;;;;;;;7.11;79.13;96504.41;5117804;28;20044;-76
2022/02/04 02:32:59;;;;;;;8.80;6.40;;;;;;;7.09;79.08;96501.16;5138912;22;19904;-87
2022/02/04 02:34:11;;;;;;;8.20;6.47;;;;;;;7.06;79.19;96493.69;5059443;28;20048;-80
2022/02/04 02:37:31;;;;;;;7.57;5.97;;;;;;;7.08;79.33;96509.91;5059456;28;20052;-78
2022/02/04 02:43:07;;;;;;;7.18;6.10;;;;;;;7.09;79.03;96512.34;4999456;28;20540;-81
2022/02/04 02:45:54;;;;;;;7.47;6.40;;;;;;;7.09;79.24;96514.13;5000206;28;20061;-84
2022/02/04 02:48:38;;;;;;;6.93;5.68;;;;;;;7.07;78.59;96508.31;5043742;28;20068;-84
2022/02/04 02:59:47;;;;;;;6.18;5.22;;;;;;;7.02;78.84;96511.38;5045098;28;20542;-77
2022/02/04 03:02:15;;;;;;;6.25;5.07;;;;;;;7.01;78.12;96507.97;5059069;28;20049;-81
2022/02/04 03:04:43;;;;;;;6.43;4.60;;;;;;;7.00;77.74;96514.13;5059635;28;20049;-77
2022/02/04 03:07:10;;;;;;;7.28;5.35;;;;;;;6.99;77.76;96496.94;5058559;28;20056;-77
2022/02/04 03:09:38;;;;;;;6.63;4.68;;;;;;;7.00;78.25;96508.13;5058707;28;20076;-79
2022/02/04 03:12:08;;;;;;;5.55;4.60;;;;;;;7.00;78.49;96508.13;5059229;28;20056;-82
2022/02/04 03:14:36;;;;;;;5.38;4.15;;;;;;;7.00;78.29;96502.94;5058911;28;20061;-80
2022/02/04 03:17:06;;;;;;;4.97;4.30;;;;;;;6.96;77.00;96514.63;5059374;28;20115;-82
2022/02/04 03:19:34;;;;;;;4.47;4.07;;;;;;;6.91;77.03;96504.72;5058425;28;20053;-83
2022/02/04 03:22:07;;;;;;;5.63;4.68;;;;;;;6.93;77.86;96515.75;5059339;28;20562;-81
2022/02/04 03:24:34;;;;;;;;;;;;;;;6.95;78.52;96508.63;5060546;28;20056;-85
2022/02/04 03:27:07;;;;;;;5.30;4.72;;;;;;;6.90;78.23;96505.69;5059218;28;19943;-80
2022/02/04 03:29:54;;;;;;;4.90;4.10;;;;;;;6.88;77.32;96514.59;5059052;28;20049;-82
2022/02/04 03:32:22;;;;;;;5.88;4.18;;;;;;;6.86;78.48;96512.16;5059476;28;20049;-82
2022/02/04 03:34:50;;;;;;;5.20;4.47;;;;;;;6.87;79.08;96510.41;5059357;28;20053;-81
2022/02/04 03:37:18;;;;;;;6.07;4.63;;;;;;;6.89;78.86;96517.03;5059633;28;20049;-84
2022/02/04 03:39:45;;;;;;;5.63;4.32;;;;;;;6.89;79.15;96517.03;5059452;28;20052;-81
2022/02/04 03:42:13;;;;;;;6.75;4.65;;;;;;;6.91;79.84;96522.03;5059325;28;20461;-85
2022/02/04 03:44:42;;;;;;;6.68;4.35;;;;;;;6.92;80.37;96523.69;5059566;28;20052;-82
2022/02/04 03:47:09;;;;;;;4.82;4.30;;;;;;;6.93;79.95;96528.72;5059741;28;20052;-84
2022/02/04 03:49:37;;;;;;;4.60;3.90;;;;;;;6.90;78.70;96531.63;5059247;28;20056;-83
2022/02/04 03:52:05;;;;;;;6.00;4.95;;;;;;;6.85;79.49;96523.50;5059246;28;20053;-82
2022/02/04 03:54:33;;;;;;;4.30;3.42;;;;;;;6.85;79.67;96539.06;5059743;28;20049;-78
2022/02/04 03:57:01;;;;;;;5.53;3.97;;;;;;;6.83;79.34;96535.03;5058408;28;20053;-80
2022/02/04 03:59:28;;;;;;;4.60;3.92;;;;;;;6.81;79.38;96545.53;5058554;28;20411;-78
2022/02/04 04:01:57;;;;;;;4.88;4.35;;;;;;;6.80;79.57;96539.56;5065809;28;20037;-83
2022/02/04 04:04:29;;;;;;;5.30;4.40;;;;;;;6.79;79.33;96540.50;5075962;28;20033;-86
2022/02/04 04:06:58;;;;;;;5.80;4.60;;;;;;;6.79;79.71;96547.47;5076427;28;20048;-86
2022/02/04 04:09:26;;;;;;;5.70;4.80;;;;;;;6.80;80.27;96536.16;5061612;28;20049;-83
2022/02/04 04:11:54;;;;;;;5.32;4.82;;;;;;;6.81;80.88;96543.75;5060880;28;20041;-82
2022/02/04 04:14:22;;;;;;;6.95;5.15;;;;;;;6.83;80.55;96543.59;5060709;28;20049;-80
2022/02/04 04:16:49;;;;;;;5.28;4.05;;;;;;;6.81;79.70;96540.34;5070077;28;20059;-85
2022/02/04 04:19:18;;;;;;;5.90;4.38;;;;;;;6.76;79.46;96543.44;5076633;28;20057;-79
2022/02/04 04:21:46;;;;;;;5.05;4.38;;;;;;;6.74;80.00;96544.56;5063907;28;20051;-83
2022/02/04 04:24:14;;;;;;;3.95;3.58;;;;;;;6.74;80.30;96544.56;5060406;28;20083;-81
2022/02/04 04:26:46;;;;;;;3.83;3.30;;;;;;;6.74;80.21;96547.16;5060139;28;20430;-77
2022/02/04 04:29:14;;;;;;;4.10;3.17;;;;;;;6.74;80.45;96550.56;5060455;28;20119;-82
2022/02/04 04:31:41;;;;;;;5.60;3.25;;;;;;;6.75;80.50;96552.16;5061062;28;20060;-83
2022/02/04 04:34:09;;;;;;;3.05;2.78;;;;;;;6.75;80.15;96553.94;5060480;28;20049;-83
2022/02/04 04:36:38;;;;;;;4.00;2.92;;;;;;;6.72;79.64;96551.69;5060127;28;20415;-82
2022/02/04 04:39:13;;;;;;;3.08;2.65;;;;;;;6.71;79.81;96560.41;5060068;28;20056;-82
2022/02/04 04:41:52;;;;;;;3.10;2.55;;;;;;;6.69;79.67;96558.00;5054935;28;20049;-80
2022/02/04 05:26:13;;;;;;;3.20;2.90;;;;;;;6.68;81.26;96576.28;5061183;28;20074;-81
2022/02/04 05:28:54;;;;;;;3.25;2.47;;;;;;;6.69;80.76;96583.09;5060315;28;20049;-82
2022/02/04 05:31:22;;;;;;;3.58;2.72;;;;;;;6.71;81.10;96575.97;5058835;28;20056;-81
2022/02/04 05:33:49;;;;;;;3.72;2.97;;;;;;;6.73;80.89;96574.03;5059599;28;20475;-81
2022/02/04 05:36:17;;;;;;;22.45;13.55;;;;;;;6.74;81.07;96580.84;5060752;28;20136;-81
2022/02/04 05:38:47;;;;;;;4.50;3.70;;;;;;;6.73;81.28;96580.03;5059227;28;20503;-80
2022/02/04 05:41:21;;;;;;;3.00;2.72;;;;;;;6.76;81.67;96589.28;5060819;28;20049;-81
2022/02/04 05:43:56;;;;;;;3.47;2.65;;;;;;;6.75;80.47;96579.88;5059480;28;20052;-82
2022/02/04 05:46:28;;;;;;;2.97;2.70;;;;;;;6.73;80.50;96589.59;5060759;28;20135;-81
2022/02/04 05:48:58;;;;;;;3.08;2.78;;;;;;;6.70;80.62;96577.75;5059930;28;20052;-80
2022/02/04 05:51:43;;;;;;;3.30;2.90;;;;;;;6.70;80.35;96580.34;5060883;28;20071;-80
2022/02/04 05:54:17;;;;;;;3.47;3.17;;;;;;;6.69;80.10;96585.69;5058859;28;20045;-82
2022/02/04 05:56:55;;;;;;;3.40;2.90;;;;;;;6.67;80.30;96578.09;5059353;28;20580;-81
2022/02/04 05:59:30;;;;;;;3.92;3.50;;;;;;;6.67;80.85;96580.69;5059634;28;20056;-81
2022/02/04 06:02:06;;;;;;;4.28;3.55;;;;;;;6.70;81.54;96589.91;5058945;28;20418;-78
2022/02/04 06:04:46;;;;;;;3.70;3.40;;;;;;;6.71;81.86;96586.34;5058830;28;20057;-79
2022/02/04 06:10:17;;;;;;;6.50;5.35;;;;;;;6.71;81.47;96592.34;5049245;28;20060;-79
2022/02/04 06:13:16;;;;;;;6.35;5.28;;;;;;;6.70;81.31;96595.09;5059156;28;20076;-83
2022/02/04 06:23:55;;;;;;;9.43;8.30;;;;;;;6.63;80.70;96596.72;5041927;28;20037;-78
2022/02/04 06:26:22;;;;;;;8.68;7.78;;;;;;;6.59;80.56;96597.00;5055367;28;20056;-77
2022/02/04 06:28:51;;;;;;;9.02;7.97;;;;;;;6.57;80.74;96595.53;5056974;28;20049;-76
2022/02/04 06:31:21;;;;;;;10.60;8.63;;;;;;;6.53;81.04;96602.81;5057032;28;20140;-80
2022/02/04 06:33:49;;;;;;;9.27;7.70;;;;;;;6.51;80.98;96602.16;5042761;28;20099;-76
2022/02/04 06:36:17;;;;;;;9.25;7.53;;;;;;;6.48;80.36;96605.06;5036338;28;20056;-77
2022/02/04 06:38:45;;;;;;;11.23;8.65;;;;;;;6.46;80.93;96606.19;5036488;28;20056;-79
2022/02/04 06:41:12;;;;;;;9.88;8.52;;;;;;;6.46;80.99;96611.38;5035039;28;20042;-74
2022/02/04 06:43:39;;;;;;;9.32;8.43;;;;;;;6.42;81.10;96613.44;5044077;28;20167;-77
2022/02/04 06:46:08;;;;;;;11.10;8.65;;;;;;;6.41;81.62;96611.84;5054709;28;20562;-74
2022/02/04 06:48:36;;;;;;;12.05;9.95;;;;;;;6.40;81.84;96612.78;5054385;28;20098;-78
2022/02/04 06:51:04;;;;;;;11.45;8.40;;;;;;;6.35;80.26;96612.44;5045638;28;20056;-76
2022/02/04 06:53:32;;;;;;;9.05;7.85;;;;;;;6.28;80.21;96616.63;5044445;28;20419;-77
2022/02/04 06:55:59;;;;;;;11.77;9.63;;;;;;;6.27;80.96;96609.81;5048461;28;20046;-78
2022/02/04 06:58:27;;;;;;;10.75;8.25;;;;;;;6.24;80.84;96621.31;5033827;28;20060;-76
2022/02/04 07:00:56;;;;;;;8.93;7.93;;;;;;;6.22;80.14;96622.44;5034171;28;20049;-77
2022/02/04 07:03:25;;;;;;;9.52;7.60;;;;;;;6.21;80.70;96628.56;5034114;28;20140;-76
2022/02/04 07:05:56;;;;;;;9.93;8.15;;;;;;;6.18;80.44;96627.91;5034268;28;20053;-75
2022/02/04 07:08:43;;;;;;;10.45;8.77;;;;;;;6.16;80.07;96629.03;5033663;28;20061;-77
2022/02/04 07:11:33;;;;;;;9.40;8.02;;;;;;;6.15;80.58;96630.81;5033942;28;20088;-76
2022/02/04 07:14:11;;;;;;;8.63;7.43;;;;;;;6.13;80.08;96630.16;5034083;28;20041;-77
2022/02/04 07:16:53;;;;;;;8.95;7.82;;;;;;;6.10;79.85;96624.44;5033177;28;20122;-77
2022/02/04 07:22:07;;;;;;;9.57;8.40;;;;;;;6.06;80.33;96631.72;5033792;28;20050;-77
2022/02/04 07:24:34;;;;;;;8.50;7.13;;;;;;;6.02;80.09;96632.19;5033922;28;20053;-76
2022/02/04 07:27:02;;;;;;;8.38;7.22;;;;;;;6.02;81.02;96632.19;5033286;28;20057;-76
2022/02/04 07:29:30;;;;;;;9.70;7.43;;;;;;;6.04;81.07;96631.06;5033878;28;20050;-77
2022/02/04 07:32:00;;;;;;;9.10;7.22;;;;;;;6.05;80.69;96637.84;5033830;28;20045;-76
2022/02/04 07:34:41;;;;;;;7.22;6.47;;;;;;;6.02;80.29;96634.78;5034367;28;20072;-77
2022/02/04 07:42:39;;;;;;;9.63;7.60;;;;;;;6.02;80.81;96625.22;5033772;28;20107;-76
2022/02/04 07:45:07;;;;;;;7.10;6.40;;;;;;;5.98;80.18;96627.28;5042464;28;20048;-76
2022/02/04 07:47:35;;;;;;;7.32;6.30;;;;;;;6.00;81.18;96627.16;5053762;28;20057;-77
2022/02/04 07:50:05;;;;;;;8.45;6.68;;;;;;;6.01;81.35;96628.75;5053735;28;20049;-75
2022/02/04 07:52:34;;;;;;;9.27;7.60;;;;;;;6.03;81.43;96631.22;5052622;28;20056;-75
2022/02/04 07:55:01;;;;;;;7.60;6.85;;;;;;;6.05;81.85;96632.69;5053744;28;20052;-75
2022/02/04 07:57:28;;;;;;;6.78;6.10;;;;;;;6.07;80.92;96635.13;5052835;28;20045;-76
2022/02/04 08:00:01;;;;;;;8.32;6.57;;;;;;;6.08;81.40;96632.38;5053234;28;20057;-77
2022/02/04 08:02:29;;;;;;;7.53;6.68;;;;;;;6.12;81.57;96644.06;5053411;28;20054;-75
2022/02/04 08:05:00;;;;;;;6.45;5.40;;;;;;;6.15;81.76;96632.59;5052632;28;20052;-75
2022/02/04 08:07:37;;;;;;;7.00;6.00;;;;;;;6.17;81.54;96644.41;5052235;28;20053;-75
2022/02/04 08:10:13;;;;;;;6.60;5.07;;;;;;;6.18;80.70;96648.63;5052695;28;20500;-77
2022/02/04 08:13:16;;;;;;;7.88;6.40;;;;;;;6.20;81.29;96638.13;5052790;28;20057;-75
2022/02/04 08:16:04;;;;;;;7.87;5.50;;;;;;;6.23;80.92;96640.41;5052316;28;20067;-77
2022/02/04 08:19:00;;;;;;;10.35;6.57;;;;;;;6.25;81.16;96637.66;5097201;22;20311;-75
2022/02/04 08:30:05;;;;;;;9.20;5.30;;;;;;;6.27;81.28;96651.25;5109644;28;20055;-75
2022/02/04 08:32:44;;;;;;;6.60;5.38;;;;;;;6.27;81.19;96651.25;5113089;28;20048;-75
2022/02/04 08:35:27;;;;;;;6.18;5.55;;;;;;;6.27;81.20;96641.72;5112813;28;20047;-76
2022/02/04 08:38:15;;;;;;;11.88;5.38;;;;;;;6.30;80.83;96640.63;5112659;28;20058;-75
2022/02/04 08:46:56;;;;;;;13.65;6.28;;;;;;;6.42;80.92;96636.78;5112291;28;20051;-74
2022/02/04 08:49:49;;;;;;;6.95;6.25;;;;;;;6.42;80.64;96636.78;5112911;28;20055;-74
2022/02/04 08:52:34;;;;;;;6.13;5.53;;;;;;;6.41;80.15;96640.34;5112529;28;20113;-75
2022/02/04 08:55:05;;;;;;;10.15;5.97;;;;;;;6.41;79.98;96640.34;5112455;28;20054;-75
2022/02/04 08:57:48;;;;;;;8.20;6.47;;;;;;;6.41;80.50;96642.94;5116090;28;20056;-75
2022/02/04 09:00:23;;;;;;;7.05;5.70;;;;;;;6.40;80.34;96654.25;5116358;28;20122;-75
2022/02/04 09:02:58;;;;;;;7.47;6.15;;;;;;;6.38;80.69;96651.00;5116295;28;20050;-75
2022/02/04 09:05:35;;;;;;;7.07;5.40;;;;;;;6.40;81.01;96647.28;5116740;28;20060;-75
2022/02/04 09:10:52;;;;;;;7.65;5.57;;;;;;;6.40;80.29;96641.28;5110894;28;20044;-75
2022/02/04 09:19:00;;;;;;;6.65;5.85;;;;;;;6.39;80.44;96639.69;5033237;28;20053;-76
2022/02/04 09:21:50;;;;;;;8.18;6.45;;;;;;;6.40;80.53;96636.91;5101724;28;20493;-75
2022/02/04 09:24:19;;;;;;;7.38;6.50;;;;;;;6.43;80.50;96619.44;5115850;28;20051;-75
2022/02/04 09:26:47;;;;;;;8.15;6.00;;;;;;;6.47;80.18;96624.19;5116344;28;20044;-75
2022/02/04 09:29:16;;;;;;;21.67;9.02;;;;;;;6.56;80.30;96625.84;5116233;28;20043;-75
2022/02/04 09:31:43;;;;;;;10.80;6.53;;;;;;;6.65;80.03;96620.66;5115916;28;20051;-75
2022/02/04 09:34:11;;;;;;;10.02;7.65;;;;;;;6.75;79.74;96623.94;5115721;28;20606;-75
2022/02/04 09:36:39;;;;;;;9.50;7.47;;;;;;;6.80;78.58;96626.91;5115305;28;20039;-75
2022/02/04 09:39:08;;;;;;;8.40;7.40;;;;;;;6.81;79.44;96618.94;5115211;28;20047;-75
2022/02/04 09:41:36;;;;;;;6.90;5.93;;;;;;;6.93;78.63;96627.25;5115342;28;20052;-75
2022/02/04 09:44:04;;;;;;;6.65;5.50;;;;;;;7.12;78.59;96620.16;5115315;28;20050;-75
2022/02/04 09:46:38;;;;;;;;;;;;;;;7.34;78.33;96622.13;5094913;28;20052;-76
2022/02/04 09:49:14;;;;;;;9.10;5.50;;;;;;;7.50;77.59;96623.09;5095145;28;19924;-75
2022/02/04 10:04:19;;;;;;;10.73;6.35;;;;;;;7.56;76.96;96623.28;5094623;28;20502;-75
2022/02/04 10:09:01;;;;;;;9.93;6.47;;;;;;;7.76;76.76;96608.19;5060671;28;20409;-75
2022/02/04 10:14:51;;;;;;;8.57;6.95;;;;;;;7.87;77.40;96607.06;5094132;28;20049;-74
2022/02/04 10:17:23;;;;;;;11.68;6.97;;;;;;;7.94;76.89;96605.41;5094234;28;20052;-75
2022/02/04 10:19:57;;;;;;;9.27;7.43;;;;;;;7.94;76.68;96604.63;5094010;28;20109;-75
2022/02/04 10:22:28;;;;;;;8.07;6.50;;;;;;;7.90;75.31;96606.72;5094119;28;20048;-75
2022/02/04 10:24:59;;;;;;;9.07;7.10;;;;;;;7.86;75.97;96591.63;5093779;28;20109;-75
2022/02/04 10:27:30;;;;;;;7.57;6.53;;;;;;;7.86;76.15;96596.81;5093917;28;20058;-74
2022/02/04 10:29:59;;;;;;;6.97;6.22;;;;;;;7.89;76.39;96599.09;5094727;28;20067;-74
2022/02/04 10:32:42;;;;;;;8.43;6.00;;;;;;;7.87;75.28;96586.28;5093846;28;20433;-74
2022/02/04 10:35:15;;;;;;;;;;;;;;;7.91;75.95;96584.16;5094512;28;20048;-75
2022/02/04 10:37:46;;;;;;;8.15;6.57;;;;;;;7.87;76.05;96583.69;5093380;28;19920;-74
2022/02/04 10:40:37;;;;;;;7.32;6.25;;;;;;;7.81;73.61;96584.34;5094027;28;20052;-75
2022/02/04 10:43:23;;;;;;;7.85;5.95;;;;;;;7.92;75.32;96576.19;5093567;28;20516;-75
2022/02/04 10:46:00;;;;;;;7.18;6.45;;;;;;;8.34;75.31;96563.91;5108306;28;20441;-75
2022/02/04 10:57:15;;;;;;;7.03;5.72;;;;;;;9.57;69.04;96555.34;5113674;28;20054;-75
2022/02/04 11:02:40;;;;;;;6.72;5.65;;;;;;;9.14;71.18;96549.81;5087445;28;20075;-75
2022/02/04 11:05:18;;;;;;;4.20;3.80;;;;;;;9.00;71.53;96544.38;5113876;28;20048;-75
2022/02/04 11:22:09;;;;;;;13.00;6.40;;;;;;;8.82;71.98;96520.47;5113221;28;20059;-75
2022/02/04 11:34:09;;;;;;;5.18;3.20;;;;;;;8.34;67.68;96527.50;5010304;28;20053;-74
2022/02/04 11:49:24;;;;;;;2.42;2.22;;;;;;;8.07;69.29;96506.19;5112757;28;20055;-74
2022/02/04 11:52:06;;;;;;;2.55;2.22;;;;;;;8.03;71.00;96502.31;5112775;28;20055;-75
2022/02/04 11:54:46;;;;;;;2.33;2.13;;;;;;;7.97;71.71;96501.16;5113041;28;20385;-74
2022/02/04 11:57:18;;;;;;;3.38;2.70;;;;;;;7.93;72.58;96488.69;5112945;28;20047;-74
2022/02/04 11:59:49;;;;;;;2.63;2.42;;;;;;;7.95;73.13;96494.53;5113310;28;20051;-75
2022/02/04 12:02:34;;;;;;;2.95;2.00;;;;;;;7.95;72.35;96487.53;5113219;28;20088;-75
2022/02/04 12:05:33;;;;;;;3.00;1.95;;;;;;;7.95;71.93;96482.34;5113686;28;20090;-74
2022/02/04 12:08:25;;;;;;;2.95;2.35;;;;;;;7.95;69.67;96471.16;5112422;28;20557;-75
2022/02/04 12:10:57;;;;;;;4.28;2.47;;;;;;;7.94;70.71;96469.56;5112383;28;20063;-74
2022/02/04 12:13:27;;;;;;;2.78;2.45;;;;;;;7.92;72.35;96471.50;5113037;28;20421;-74
2022/02/04 12:16:05;;;;;;;2.50;2.30;;;;;;;7.92;70.63;96461.13;5113088;28;20072;-75
2022/02/04 12:19:08;;;;;;;6.72;3.33;;;;;;;7.96;73.55;96467.56;5112972;28;20052;-74
2022/02/04 12:21:44;;;;;;;4.95;2.40;;;;;;;7.97;73.21;96464.00;5112989;28;20135;-74
2022/02/04 12:24:31;;;;;;;2.45;2.25;;;;;;;7.96;73.68;96472.75;5113190;28;20039;-74
2022/02/04 12:27:31;;;;;;;2.97;2.67;;;;;;;7.94;73.07;96467.75;5112563;28;20052;-74
2022/02/04 12:30:01;;;;;;;3.00;2.20;;;;;;;7.93;72.46;96467.91;5115454;28;20043;-74
2022/02/04 12:32:30;;;;;;;2.45;2.25;;;;;;;7.92;72.63;96458.50;5118007;28;20050;-74
2022/02/04 12:34:58;;;;;;;2.20;2.00;;;;;;;7.90;72.67;96447.47;5117409;28;20097;-74
2022/02/04 12:37:26;;;;;;;2.42;2.03;;;;;;;7.86;71.53;96446.19;5116667;28;20062;-75
2022/02/04 12:39:53;;;;;;;3.45;1.98;;;;;;;7.83;71.83;96436.97;5117491;28;20051;-74
2022/02/04 12:42:21;;;;;;;5.43;2.55;;;;;;;7.82;71.62;96435.31;5117126;28;20051;-74
2022/02/04 12:44:48;;;;;;;5.72;2.08;;;;;;;7.82;71.98;96436.13;5117339;28;20042;-74
2022/02/04 12:47:20;;;;;;;4.45;1.92;;;;;;;7.82;72.30;96430.13;5116856;28;20054;-74
2022/02/04 12:49:51;;;;;;;2.43;2.20;;;;;;;7.81;71.89;96429.34;5116910;28;20054;-75
2022/02/04 12:52:24;;;;;;;2.00;1.73;;;;;;;7.81;70.76;96434.53;5117097;28;20047;-74
2022/02/04 12:54:57;;;;;;;11.15;2.60;;;;;;;7.80;71.80;96417.31;5116718;28;20043;-75
2022/02/04 12:57:35;;;;;;;2.17;1.77;;;;;;;7.80;72.01;96421.69;5116414;28;20051;-74
2022/02/04 13:00:19;;;;;;;5.63;2.08;;;;;;;7.79;71.63;96420.09;5116618;28;20078;-74
2022/02/04 13:03:03;;;;;;;2.67;1.30;;;;;;;7.79;69.81;96405.31;5116433;28;20054;-74
2022/02/04 13:08:23;;;;;;;1.95;1.42;;;;;;;7.76;70.33;96394.44;5116428;28;20563;-74
2022/02/04 13:10:59;;;;;;;2.25;1.50;;;;;;;7.75;70.87;96393.66;5116282;28;20566;-74
2022/02/04 13:13:29;;;;;;;1.35;1.20;;;;;;;7.75;70.39;96395.44;5118686;28;20047;-74
2022/02/04 13:15:57;;;;;;;1.30;1.17;;;;;;;7.76;71.28;96400.47;5119332;28;20070;-74
2022/02/04 13:18:26;;;;;;;1.10;1.00;;;;;;;7.77;70.58;96391.69;5119256;28;20055;-75
2022/02/04 13:20:58;;;;;;;1.20;1.10;;;;;;;7.78;68.78;96398.53;5118842;28;20172;-74
2022/02/04 13:23:30;;;;;;;1.85;1.00;;;;;;;7.80;67.54;96388.75;5116700;28;20523;-75
2022/02/04 13:25:59;;;;;;;1.33;1.23;;;;;;;7.84;70.52;96382.25;5115831;28;20047;-74
2022/02/04 13:28:29;;;;;;;1.15;1.13;;;;;;;7.84;68.71;96378.84;5116291;28;20051;-75
2022/02/04 13:31:01;;;;;;;3.90;1.30;;;;;;;7.82;67.05;96384.19;5115662;28;20052;-74
2022/02/04 13:33:30;;;;;;;1.45;1.08;;;;;;;7.83;67.66;96385.03;5116430;28;20063;-74
2022/02/04 13:36:10;;;;;;;6.22;1.63;;;;;;;7.85;68.74;96375.28;5115608;28;20044;-74
2022/02/04 13:38:48;;;;;;;5.10;1.48;;;;;;;7.87;69.73;96380.28;5107385;28;20050;-74
2022/02/04 13:41:28;;;;;;;1.58;1.17;;;;;;;7.87;67.86;96370.72;5113125;28;20104;-74
2022/02/04 13:44:26;;;;;;;1.48;1.20;;;;;;;7.88;68.97;96368.94;5092990;28;20036;-75
2022/02/04 13:47:01;;;;;;;2.85;1.00;;;;;;;7.88;69.37;96355.94;5104608;28;20058;-74
2022/02/04 13:49:53;;;;;;;1.10;1.00;;;;;;;7.87;69.92;96352.53;5115181;28;20524;-74
2022/02/04 13:52:38;;;;;;;1.85;1.17;;;;;;;7.86;70.08;96363.09;5115274;28;20047;-74
2022/02/04 13:55:23;;;;;;;1.75;1.17;;;;;;;7.84;69.82;96356.28;5114774;28;20043;-74
2022/02/04 13:58:09;;;;;;;1.77;1.67;;;;;;;7.84;69.40;96345.88;5114768;28;20058;-74
2022/02/04 14:00:47;;;;;;;1.85;1.50;;;;;;;7.88;70.84;96348.97;5115196;28;20100;-73
2022/02/04 14:03:21;;;;;;;2.22;1.50;;;;;;;7.87;69.64;96347.34;5098658;28;20418;-74
2022/02/04 14:05:55;;;;;;;2.70;1.55;;;;;;;7.88;70.12;96358.53;5102968;28;20054;-74
2022/02/04 14:08:31;;;;;;;3.15;1.23;;;;;;;7.87;70.11;96352.53;5110476;28;20059;-74
2022/02/04 14:11:02;;;;;;;2.78;1.40;;;;;;;7.88;70.48;96350.75;5114624;28;20185;-74
2022/02/04 14:13:31;;;;;;;1.50;1.15;;;;;;;7.89;69.59;96355.75;5114306;28;20047;-74
2022/02/04 14:16:01;;;;;;;1.42;1.33;;;;;;;7.89;70.42;96350.56;5114857;28;20097;-74
2022/02/04 14:18:30;;;;;;;1.05;0.93;;;;;;;7.86;70.48;96352.72;5113964;28;20070;-75
2022/02/04 14:20:58;;;;;;;1.85;0.90;;;;;;;7.82;69.26;96353.03;5132049;22;20056;-76
2022/02/04 14:23:27;;;;;;;1.98;1.05;;;;;;;7.79;68.71;96352.59;5104289;28;20411;-76
2022/02/04 14:26:00;;;;;;;0.88;0.88;;;;;;;7.80;69.67;96349.00;5090765;28;20043;-77
2022/02/04 14:28:37;;;;;;;1.83;1.30;;;;;;;7.79;69.48;96348.19;5108873;28;20048;-79
2022/02/04 14:31:12;;;;;;;1.88;0.88;;;;;;;7.76;69.28;96339.91;5094234;28;20045;-78
2022/02/04 14:36:40;;;;;;;2.90;1.17;;;;;;;7.77;69.54;96350.16;5054112;28;20592;-75
2022/02/04 14:53:21;;;;;;;1.38;0.93;;;;;;;7.73;68.59;96354.06;5075274;28;20078;-74
2022/02/04 14:58:48;;;;;;;2.05;0.93;;;;;;;7.65;68.89;96343.69;5093269;28;20052;-73
2022/02/04 15:01:21;;;;;;;2.03;0.73;;;;;;;7.63;67.92;96327.50;5093282;28;20052;-78
2022/02/04 15:03:59;;;;;;;1.13;0.90;;;;;;;7.63;68.74;96322.28;5093689;28;20051;-75
2022/02/04 15:06:30;;;;;;;1.25;1.15;;;;;;;7.62;68.87;96323.28;5093070;28;20062;-76
2022/02/04 15:09:05;;;;;;;1.08;0.90;;;;;;;7.60;68.30;96323.44;5092528;28;20223;-76
2022/02/04 15:11:36;;;;;;;2.25;1.10;;;;;;;7.58;68.92;96329.78;5093880;28;20180;-74
2022/02/04 15:14:06;;;;;;;4.32;1.73;;;;;;;7.57;68.14;96328.19;5092844;28;20051;-76
2022/02/04 15:16:34;;;;;;;0.95;0.95;;;;;;;7.56;69.13;96321.38;5090244;28;20051;-74
2022/02/04 15:19:04;;;;;;;1.20;1.10;;;;;;;7.57;69.86;96323.00;5093094;28;20052;-78
2022/02/04 15:21:32;;;;;;;1.90;1.25;;;;;;;7.53;68.32;96317.31;5092881;28;20048;-75
2022/02/04 15:24:00;;;;;;;1.27;1.17;;;;;;;7.50;68.91;96322.03;5092892;28;20055;-76
2022/02/04 15:26:29;;;;;;;2.92;1.65;;;;;;;7.51;69.91;96315.88;5093144;28;20052;-76
2022/02/04 15:29:02;;;;;;;1.42;1.10;;;;;;;7.51;70.46;96321.06;5092885;28;20044;-77
2022/02/04 15:31:38;;;;;;;1.52;1.38;;;;;;;7.49;69.81;96323.03;5093053;28;20075;-77
2022/02/04 15:34:06;;;;;;;1.25;1.15;;;;;;;7.48;69.81;96318.81;5093011;28;20044;-76
2022/02/04 15:36:41;;;;;;;1.48;1.20;;;;;;;7.45;69.65;96324.34;5092158;28;20493;-75
2022/02/04 15:39:10;;;;;;;1.20;1.10;;;;;;;7.41;70.13;96329.03;5092636;28;20048;-76
2022/02/04 15:41:43;;;;;;;1.80;1.15;;;;;;;7.40;69.90;96327.44;5092861;28;20056;-75
2022/02/04 15:44:17;;;;;;;1.55;1.10;;;;;;;7.38;70.61;96327.59;5092930;28;20417;-76
2022/02/04 15:52:47;;;;;;;1.52;0.88;;;;;;;7.32;69.62;96323.06;5092728;28;20055;-75
2022/02/04 15:58:24;;;;;;;1.08;0.88;;;;;;;7.24;69.83;96343.88;5092734;28;20059;-76
2022/02/04 16:01:07;;;;;;;4.63;0.95;;;;;;;7.18;67.72;96329.78;5092640;28;20051;-76
2022/02/04 16:03:49;;;;;;;0.70;0.70;;;;;;;7.16;67.39;96330.94;5092651;28;20075;-75
2022/02/04 16:06:19;;;;;;;1.15;0.82;;;;;;;7.13;69.40;96331.28;5093633;28;20048;-75
2022/02/04 16:08:49;;;;;;;1.00;0.90;;;;;;;7.13;69.50;96326.09;5092731;28;20060;-76
2022/02/04 16:11:30;;;;;;;0.77;0.77;;;;;;;7.09;67.99;96327.38;5092879;28;20490;-74
2022/02/04 16:14:07;;;;;;;1.10;1.00;;;;;;;7.06;68.19;96322.53;5092473;28;20398;-75
2022/02/04 16:16:40;;;;;;;1.08;1.00;;;;;;;7.03;68.76;96321.06;5092673;28;20048;-74
2022/02/04 16:19:14;;;;;;;;;;;;;;;7.04;69.55;96321.88;5087200;28;20505;-75
2022/02/04 16:21:52;;;;;;;1.08;1.00;;;;;;;7.01;68.41;96307.47;5092754;28;19927;-77